sensor_id;sensor_type;location;lat;lon;timestamp;pressure;altitude;pressure_sealevel;temperature;humidity
22743;BME280;11538;48.884;8.696;2023-12-20T00:00:37;98772.13;;;6.75;100.00
22743;BME280;11538;48.884;8.696;2023-12-20T00:03:06;98764.84;;;6.76;100.00
22743;BME280;11538;48.884;8.696;2023-12-20T00:05:33;98770.00;;;6.72;100.00
22743;BME280;11538;48.884;8.696;2023-12-20T00:08:02;98762.16;;;6.70;100.00
22743;BME280;11538;48.884;8.696;2023-12-20T00:10:29;98767.31;;;6.67;100.00
22743;BME280;11538;48.884;8.696;2023-12-20T00:12:56;98757.06;;;6.64;100.00
22743;BME280;11538;48.884;8.696;2023-12-20T00:15:23;98753.81;;;6.62;100.00
22743;BME280;11538;48.884;8.696;2023-12-20T00:17:50;98758.69;;;6.59;100.00
22743;BME280;11538;48.884;8.696;2023-12-20T00:20:17;98751.41;;;6.60;100.00
22743;BME280;11538;48.884;8.696;2023-12-20T00:22:44;98765.69;;;6.61;100.00
22743;BME280;11538;48.884;8.696;2023-12-20T00:25:10;98755.72;;;6.61;100.00
22743;BME280;11538;48.884;8.696;2023-12-20T00:27:37;98749.25;;;6.62;100.00
22743;BME280;11538;48.884;8.696;2023-12-20T00:30:05;98753.81;;;6.62;100.00
22743;BME280;11538;48.884;8.696;2023-12-20T00:32:32;98747.63;;;6.61;100.00
22743;BME280;11538;48.884;8.696;2023-12-20T00:34:59;98746.81;;;6.61;100.00
22743;BME280;11538;48.884;8.696;2023-12-20T00:37:26;98743.59;;;6.58;100.00
22743;BME280;11538;48.884;8.696;2023-12-20T00:39:53;98744.66;;;6.57;100.00
22743;BME280;11538;48.884;8.696;2023-12-20T00:42:20;98744.94;;;6.56;100.00
22743;BME280;11538;48.884;8.696;2023-12-20T00:44:46;98744.94;;;6.56;100.00
22743;BME280;11538;48.884;8.696;2023-12-20T00:47:13;98750.34;;;6.56;100.00
22743;BME280;11538;48.884;8.696;2023-12-20T00:49:40;98753.31;;;6.54;100.00
22743;BME280;11538;48.884;8.696;2023-12-20T00:52:07;98747.13;;;6.54;100.00
22743;BME280;11538;48.884;8.696;2023-12-20T00:54:34;98741.44;;;6.50;100.00
22743;BME280;11538;48.884;8.696;2023-12-20T00:57:01;98744.69;;;6.52;100.00
22743;BME280;11538;48.884;8.696;2023-12-20T00:59:28;98748.47;;;6.51;100.00
22743;BME280;11538;48.884;8.696;2023-12-20T01:01:55;98756.53;;;6.56;100.00
22743;BME280;11538;48.884;8.696;2023-12-20T01:04:22;98747.38;;;6.57;100.00
22743;BME280;11538;48.884;8.696;2023-12-20T01:06:49;98750.88;;;6.58;100.00
22743;BME280;11538;48.884;8.696;2023-12-20T01:09:16;98755.72;;;6.56;100.00
22743;BME280;11538;48.884;8.696;2023-12-20T01:11:43;98761.66;;;6.53;100.00
22743;BME280;11538;48.884;8.696;2023-12-20T01:14:10;98773.53;;;6.52;100.00
22743;BME280;11538;48.884;8.696;2023-12-20T01:16:37;98775.41;;;6.51;100.00
22743;BME280;11538;48.884;8.696;2023-12-20T01:19:04;98767.31;;;6.51;100.00
22743;BME280;11538;48.884;8.696;2023-12-20T01:21:30;98770.84;;;6.52;100.00
22743;BME280;11538;48.884;8.696;2023-12-20T01:23:57;98777.56;;;6.49;100.00
22743;BME280;11538;48.884;8.696;2023-12-20T01:26:24;98771.38;;;6.49;100.00
22743;BME280;11538;48.884;8.696;2023-12-20T01:28:51;98772.72;;;6.46;100.00
22743;BME280;11538;48.884;8.696;2023-12-20T01:31:18;98766.25;;;6.47;100.00
22743;BME280;11538;48.884;8.696;2023-12-20T01:33:45;98767.63;;;6.44;100.00
22743;BME280;11538;48.884;8.696;2023-12-20T01:36:12;98759.25;;;6.41;100.00
22743;BME280;11538;48.884;8.696;2023-12-20T01:38:39;98763.03;;;6.40;100.00
22743;BME280;11538;48.884;8.696;2023-12-20T01:45:02;98772.75;;;6.36;100.00
22743;BME280;11538;48.884;8.696;2023-12-20T01:47:29;98771.13;;;6.35;100.00
22743;BME280;11538;48.884;8.696;2023-12-20T01:49:56;98778.41;;;6.34;100.00
22743;BME280;11538;48.884;8.696;2023-12-20T01:52:26;98768.19;;;6.31;100.00
22743;BME280;11538;48.884;8.696;2023-12-20T01:54:54;98768.44;;;6.29;100.00
22743;BME280;11538;48.884;8.696;2023-12-20T01:57:23;98770.34;;;6.29;100.00
22743;BME280;11538;48.884;8.696;2023-12-20T01:59:50;98760.91;;;6.26;100.00
22743;BME280;11538;48.884;8.696;2023-12-20T02:02:17;98767.38;;;6.25;100.00
22743;BME280;11538;48.884;8.696;2023-12-20T02:04:44;98766.84;;;6.23;100.00
22743;BME280;11538;48.884;8.696;2023-12-20T02:07:12;98778.69;;;6.22;100.00
22743;BME280;11538;48.884;8.696;2023-12-20T02:09:40;98775.47;;;6.20;100.00
22743;BME280;11538;48.884;8.696;2023-12-20T02:12:07;98778.16;;;6.20;100.00
22743;BME280;11538;48.884;8.696;2023-12-20T02:14:34;98780.31;;;6.18;100.00
22743;BME280;11538;48.884;8.696;2023-12-20T02:17:01;98787.06;;;6.16;100.00
22743;BME280;11538;48.884;8.696;2023-12-20T02:19:29;98783.00;;;6.13;100.00
22743;BME280;11538;48.884;8.696;2023-12-20T02:22:11;98787.84;;;6.11;100.00
22743;BME280;11538;48.884;8.696;2023-12-20T02:24:38;98795.41;;;6.09;100.00
22743;BME280;11538;48.884;8.696;2023-12-20T02:27:07;98788.94;;;6.10;100.00
22743;BME280;11538;48.884;8.696;2023-12-20T02:29:35;98790.00;;;6.09;100.00
22743;BME280;11538;48.884;8.696;2023-12-20T02:32:02;98791.09;;;6.08;100.00
22743;BME280;11538;48.884;8.696;2023-12-20T02:34:29;98791.63;;;6.05;100.00
22743;BME280;11538;48.884;8.696;2023-12-20T02:36:56;98784.09;;;6.02;100.00
22743;BME280;11538;48.884;8.696;2023-12-20T02:39:23;98795.38;;;5.98;100.00
22743;BME280;11538;48.884;8.696;2023-12-20T02:41:50;98796.97;;;5.94;100.00
22743;BME280;11538;48.884;8.696;2023-12-20T02:44:17;98798.84;;;5.94;100.00
22743;BME280;11538;48.884;8.696;2023-12-20T02:46:44;98798.06;;;5.93;100.00
22743;BME280;11538;48.884;8.696;2023-12-20T02:49:11;98792.13;;;5.91;100.00
22743;BME280;11538;48.884;8.696;2023-12-20T02:51:38;98795.91;;;5.90;100.00
22743;BME280;11538;48.884;8.696;2023-12-20T02:54:05;98796.97;;;5.89;100.00
22743;BME280;11538;48.884;8.696;2023-12-20T02:56:33;98800.75;;;5.88;100.00
22743;BME280;11538;48.884;8.696;2023-12-20T02:59:00;98806.66;;;5.85;100.00
22743;BME280;11538;48.884;8.696;2023-12-20T03:01:29;98807.75;;;5.84;100.00
22743;BME280;11538;48.884;8.696;2023-12-20T03:03:56;98807.19;;;5.82;100.00
22743;BME280;11538;48.884;8.696;2023-12-20T03:06:24;98804.50;;;5.82;100.00
22743;BME280;11538;48.884;8.696;2023-12-20T03:08:52;98808.81;;;5.83;100.00
22743;BME280;11538;48.884;8.696;2023-12-20T03:11:19;98807.19;;;5.82;100.00
22743;BME280;11538;48.884;8.696;2023-12-20T03:13:45;98817.69;;;5.83;100.00
22743;BME280;11538;48.884;8.696;2023-12-20T03:16:13;98819.03;;;5.81;100.00
22743;BME280;11538;48.884;8.696;2023-12-20T03:18:42;98822.53;;;5.81;100.00
22743;BME280;11538;48.884;8.696;2023-12-20T03:21:09;98824.69;;;5.79;100.00
22743;BME280;11538;48.884;8.696;2023-12-20T03:23:36;98823.06;;;5.78;100.00
22743;BME280;11538;48.884;8.696;2023-12-20T03:26:06;98814.44;;;5.76;100.00
22743;BME280;11538;48.884;8.696;2023-12-20T03:28:34;98823.59;;;5.75;100.00
22743;BME280;11538;48.884;8.696;2023-12-20T03:31:01;98812.81;;;5.75;100.00
22743;BME280;11538;48.884;8.696;2023-12-20T03:33:29;98822.53;;;5.76;100.00
22743;BME280;11538;48.884;8.696;2023-12-20T03:35:56;98817.41;;;5.75;100.00
22743;BME280;11538;48.884;8.696;2023-12-20T03:38:23;98811.22;;;5.74;100.00
22743;BME280;11538;48.884;8.696;2023-12-20T03:40:51;98807.19;;;5.71;100.00
22743;BME280;11538;48.884;8.696;2023-12-20T03:43:18;98800.97;;;5.71;100.00
22743;BME280;11538;48.884;8.696;2023-12-20T03:45:45;98816.06;;;5.72;100.00
22743;BME280;11538;48.884;8.696;2023-12-20T03:48:12;98820.38;;;5.73;100.00
22743;BME280;11538;48.884;8.696;2023-12-20T03:50:39;98818.19;;;5.70;100.00
22743;BME280;11538;48.884;8.696;2023-12-20T03:53:06;98817.66;;;5.68;100.00
22743;BME280;11538;48.884;8.696;2023-12-20T03:55:33;98814.19;;;5.67;100.00
22743;BME280;11538;48.884;8.696;2023-12-20T03:58:00;98818.47;;;5.68;100.00
22743;BME280;11538;48.884;8.696;2023-12-20T04:00:27;98813.09;;;5.68;100.00
22743;BME280;11538;48.884;8.696;2023-12-20T04:02:54;98816.88;;;5.67;100.00
22743;BME280;11538;48.884;8.696;2023-12-20T04:05:21;98821.72;;;5.70;100.00
22743;BME280;11538;48.884;8.696;2023-12-20T04:07:48;98827.09;;;5.70;100.00
22743;BME280;11538;48.884;8.696;2023-12-20T04:10:17;98830.88;;;5.69;100.00
22743;BME280;11538;48.884;8.696;2023-12-20T04:12:43;98823.88;;;5.68;100.00
22743;BME280;11538;48.884;8.696;2023-12-20T04:15:10;98822.50;;;5.71;100.00
22743;BME280;11538;48.884;8.696;2023-12-20T04:17:38;98824.94;;;5.73;100.00
22743;BME280;11538;48.884;8.696;2023-12-20T04:20:06;98828.72;;;5.71;100.00
22743;BME280;11538;48.884;8.696;2023-12-20T04:22:33;98828.19;;;5.69;100.00
22743;BME280;11538;48.884;8.696;2023-12-20T04:25:00;98836.78;;;5.71;100.00
22743;BME280;11538;48.884;8.696;2023-12-20T04:27:27;98845.66;;;5.72;100.00
22743;BME280;11538;48.884;8.696;2023-12-20T04:29:54;98828.72;;;5.71;100.00
22743;BME280;11538;48.884;8.696;2023-12-20T04:32:21;98836.50;;;5.73;100.00
22743;BME280;11538;48.884;8.696;2023-12-20T04:34:47;98842.72;;;5.74;100.00
22743;BME280;11538;48.884;8.696;2023-12-20T04:37:14;98847.03;;;5.75;100.00
22743;BME280;11538;48.884;8.696;2023-12-20T04:39:41;98844.34;;;5.75;100.00
22743;BME280;11538;48.884;8.696;2023-12-20T04:42:09;98851.34;;;5.76;100.00
22743;BME280;11538;48.884;8.696;2023-12-20T04:44:36;98852.41;;;5.75;100.00
22743;BME280;11538;48.884;8.696;2023-12-20T04:47:03;98848.63;;;5.76;100.00
22743;BME280;11538;48.884;8.696;2023-12-20T04:49:29;98860.75;;;5.78;100.00
22743;BME280;11538;48.884;8.696;2023-12-20T04:51:56;98849.72;;;5.80;100.00
22743;BME280;11538;48.884;8.696;2023-12-20T04:54:23;98852.41;;;5.80;100.00
22743;BME280;11538;48.884;8.696;2023-12-20T04:56:50;98861.28;;;5.80;100.00
22743;BME280;11538;48.884;8.696;2023-12-20T04:59:17;98865.34;;;5.78;100.00
22743;BME280;11538;48.884;8.696;2023-12-20T05:01:44;98862.88;;;5.76;100.00
22743;BME280;11538;48.884;8.696;2023-12-20T05:04:11;98862.09;;;5.76;100.00
22743;BME280;11538;48.884;8.696;2023-12-20T05:06:38;98867.47;;;5.76;100.00
22743;BME280;11538;48.884;8.696;2023-12-20T05:09:05;98867.19;;;5.77;100.00
22743;BME280;11538;48.884;8.696;2023-12-20T05:11:32;98866.41;;;5.77;100.00
22743;BME280;11538;48.884;8.696;2023-12-20T05:13:58;98876.09;;;5.78;100.00
22743;BME280;11538;48.884;8.696;2023-12-20T05:16:25;98871.25;;;5.80;100.00
22743;BME280;11538;48.884;8.696;2023-12-20T05:18:52;98871.25;;;5.80;100.00
22743;BME280;11538;48.884;8.696;2023-12-20T05:21:19;98872.59;;;5.82;100.00
22743;BME280;11538;48.884;8.696;2023-12-20T05:23:46;98880.94;;;5.81;100.00
22743;BME280;11538;48.884;8.696;2023-12-20T05:26:13;98881.75;;;5.81;100.00
22743;BME280;11538;48.884;8.696;2023-12-20T05:28:40;98877.19;;;5.82;100.00
22743;BME280;11538;48.884;8.696;2023-12-20T05:31:07;98889.81;;;5.81;100.00
22743;BME280;11538;48.884;8.696;2023-12-20T05:33:34;98890.34;;;5.78;100.00
22743;BME280;11538;48.884;8.696;2023-12-20T05:36:01;98889.28;;;5.79;100.00
22743;BME280;11538;48.884;8.696;2023-12-20T05:38:28;98899.25;;;5.79;100.00
22743;BME280;11538;48.884;8.696;2023-12-20T05:40:55;98898.19;;;5.80;100.00
22743;BME280;11538;48.884;8.696;2023-12-20T05:43:22;98905.72;;;5.78;100.00
22743;BME280;11538;48.884;8.696;2023-12-20T05:45:49;98907.31;;;5.79;100.00
22743;BME280;11538;48.884;8.696;2023-12-20T05:48:16;98906.25;;;5.80;100.00
22743;BME280;11538;48.884;8.696;2023-12-20T05:50:43;98904.88;;;5.77;100.00
22743;BME280;11538;48.884;8.696;2023-12-20T05:53:10;98908.13;;;5.79;100.00
22743;BME280;11538;48.884;8.696;2023-12-20T05:55:37;98923.47;;;5.79;100.00
22743;BME280;11538;48.884;8.696;2023-12-20T05:58:03;98927.78;;;5.80;100.00
22743;BME280;11538;48.884;8.696;2023-12-20T06:00:31;98925.63;;;5.82;100.00
22743;BME280;11538;48.884;8.696;2023-12-20T06:02:58;98927.25;;;5.83;100.00
22743;BME280;11538;48.884;8.696;2023-12-20T06:05:26;98926.19;;;5.84;100.00
22743;BME280;11538;48.884;8.696;2023-12-20T06:07:52;98933.44;;;5.83;100.00
22743;BME280;11538;48.884;8.696;2023-12-20T06:10:21;98935.88;;;5.85;100.00
22743;BME280;11538;48.884;8.696;2023-12-20T06:12:48;98940.19;;;5.86;100.00
22743;BME280;11538;48.884;8.696;2023-12-20T06:15:18;98938.28;;;5.86;100.00
22743;BME280;11538;48.884;8.696;2023-12-20T06:17:45;98942.88;;;5.86;100.00
22743;BME280;11538;48.884;8.696;2023-12-20T06:20:15;98936.41;;;5.87;100.00
22743;BME280;11538;48.884;8.696;2023-12-20T06:22:42;98935.59;;;5.86;100.00
22743;BME280;11538;48.884;8.696;2023-12-20T06:25:09;98947.97;;;5.88;100.00
22743;BME280;11538;48.884;8.696;2023-12-20T06:27:36;98946.13;;;5.88;100.00
22743;BME280;11538;48.884;8.696;2023-12-20T06:30:04;98958.50;;;5.89;100.00
22743;BME280;11538;48.884;8.696;2023-12-20T06:32:32;98961.19;;;5.89;100.00
22743;BME280;11538;48.884;8.696;2023-12-20T06:34:59;98964.69;;;5.90;100.00
22743;BME280;11538;48.884;8.696;2023-12-20T06:37:26;98967.66;;;5.88;100.00
22743;BME280;11538;48.884;8.696;2023-12-20T06:39:53;98961.44;;;5.88;100.00
22743;BME280;11538;48.884;8.696;2023-12-20T06:42:20;98970.06;;;5.84;100.00
22743;BME280;11538;48.884;8.696;2023-12-20T06:44:47;98984.34;;;5.85;100.00
22743;BME280;11538;48.884;8.696;2023-12-20T06:47:14;98982.72;;;5.84;100.00
22743;BME280;11538;48.884;8.696;2023-12-20T06:49:41;98984.59;;;5.83;100.00
22743;BME280;11538;48.884;8.696;2023-12-20T06:52:08;98985.38;;;5.79;100.00
22743;BME280;11538;48.884;8.696;2023-12-20T06:54:35;98998.28;;;5.77;100.00
22743;BME280;11538;48.884;8.696;2023-12-20T06:57:02;98986.19;;;5.79;100.00
22743;BME280;11538;48.884;8.696;2023-12-20T06:59:32;98988.88;;;5.79;100.00
22743;BME280;11538;48.884;8.696;2023-12-20T07:01:58;98990.22;;;5.77;100.00
22743;BME280;11538;48.884;8.696;2023-12-20T07:04:25;98997.47;;;5.76;100.00
22743;BME280;11538;48.884;8.696;2023-12-20T07:06:53;99009.84;;;5.77;100.00
22743;BME280;11538;48.884;8.696;2023-12-20T07:09:24;99009.06;;;5.77;100.00
22743;BME280;11538;48.884;8.696;2023-12-20T07:11:51;99014.44;;;5.77;100.00
22743;BME280;11538;48.884;8.696;2023-12-20T07:14:24;99014.44;;;5.77;100.00
22743;BME280;11538;48.884;8.696;2023-12-20T07:16:51;99015.25;;;5.77;100.00
22743;BME280;11538;48.884;8.696;2023-12-20T07:19:18;99022.22;;;5.73;100.00
22743;BME280;11538;48.884;8.696;2023-12-20T07:21:45;99016.84;;;5.73;100.00
22743;BME280;11538;48.884;8.696;2023-12-20T07:24:12;99030.31;;;5.73;100.00
22743;BME280;11538;48.884;8.696;2023-12-20T07:26:39;99032.19;;;5.73;100.00
22743;BME280;11538;48.884;8.696;2023-12-20T07:29:06;99026.81;;;5.73;100.00
22743;BME280;11538;48.884;8.696;2023-12-20T07:31:33;99037.56;;;5.73;100.00
22743;BME280;11538;48.884;8.696;2023-12-20T07:34:01;99045.91;;;5.71;100.00
22743;BME280;11538;48.884;8.696;2023-12-20T07:36:28;99053.19;;;5.70;100.00
22743;BME280;11538;48.884;8.696;2023-12-20T07:38:55;99043.22;;;5.71;100.00
22743;BME280;11538;48.884;8.696;2023-12-20T07:41:22;99043.22;;;5.71;100.00
22743;BME280;11538;48.884;8.696;2023-12-20T07:43:50;99052.09;;;5.71;100.00
22743;BME280;11538;48.884;8.696;2023-12-20T07:46:17;99051.84;;;5.73;100.00
22743;BME280;11538;48.884;8.696;2023-12-20T07:48:45;99050.47;;;5.70;100.00
22743;BME280;11538;48.884;8.696;2023-12-20T07:51:13;99052.63;;;5.68;100.00
22743;BME280;11538;48.884;8.696;2023-12-20T07:53:40;99059.63;;;5.69;100.00
22743;BME280;11538;48.884;8.696;2023-12-20T07:56:17;99054.78;;;5.66;100.00
22743;BME280;11538;48.884;8.696;2023-12-20T07:58:45;99056.63;;;5.66;100.00
22743;BME280;11538;48.884;8.696;2023-12-20T08:01:19;99058.00;;;5.68;100.00
22743;BME280;11538;48.884;8.696;2023-12-20T08:03:49;99064.47;;;5.67;100.00
22743;BME280;11538;48.884;8.696;2023-12-20T08:06:16;99072.78;;;5.66;100.00
22743;BME280;11538;48.884;8.696;2023-12-20T08:08:44;99083.53;;;5.66;100.00
22743;BME280;11538;48.884;8.696;2023-12-20T08:11:11;99082.44;;;5.62;100.00
22743;BME280;11538;48.884;8.696;2023-12-20T08:13:38;99093.72;;;5.59;100.00
22743;BME280;11538;48.884;8.696;2023-12-20T08:16:05;99098.31;;;5.58;100.00
22743;BME280;11538;48.884;8.696;2023-12-20T08:18:32;99089.69;;;5.56;100.00
22743;BME280;11538;48.884;8.696;2023-12-20T08:21:00;99086.97;;;5.51;100.00
22743;BME280;11538;48.884;8.696;2023-12-20T08:23:28;99086.69;;;5.52;100.00
22743;BME280;11538;48.884;8.696;2023-12-20T08:25:58;99091.84;;;5.54;100.00
22743;BME280;11538;48.884;8.696;2023-12-20T08:28:25;99094.81;;;5.57;100.00
22743;BME280;11538;48.884;8.696;2023-12-20T08:30:52;99096.19;;;5.60;100.00
22743;BME280;11538;48.884;8.696;2023-12-20T08:33:20;99095.66;;;5.63;100.00
22743;BME280;11538;48.884;8.696;2023-12-20T08:35:47;99097.56;;;5.68;100.00
22743;BME280;11538;48.884;8.696;2023-12-20T08:38:14;99102.41;;;5.71;100.00
22743;BME280;11538;48.884;8.696;2023-12-20T08:40:41;99098.97;;;5.76;100.00
22743;BME280;11538;48.884;8.696;2023-12-20T08:43:08;99099.50;;;5.78;100.00
22743;BME280;11538;48.884;8.696;2023-12-20T08:45:36;99102.22;;;5.78;100.00
22743;BME280;11538;48.884;8.696;2023-12-20T08:48:03;99106.78;;;5.82;100.00
22743;BME280;11538;48.884;8.696;2023-12-20T08:50:35;99111.13;;;5.89;100.00
22743;BME280;11538;48.884;8.696;2023-12-20T08:53:03;99107.66;;;5.88;100.00
22743;BME280;11538;48.884;8.696;2023-12-20T08:55:30;99112.22;;;5.88;100.00
22743;BME280;11538;48.884;8.696;2023-12-20T08:57:58;99104.97;;;5.88;100.00
22743;BME280;11538;48.884;8.696;2023-12-20T09:00:25;99105.50;;;5.90;100.00
22743;BME280;11538;48.884;8.696;2023-12-20T09:02:54;99105.78;;;5.94;100.00
22743;BME280;11538;48.884;8.696;2023-12-20T09:05:21;99116.38;;;6.00;100.00
22743;BME280;11538;48.884;8.696;2023-12-20T09:07:49;99112.63;;;6.07;100.00
22743;BME280;11538;48.884;8.696;2023-12-20T09:10:16;99112.34;;;6.03;100.00
22743;BME280;11538;48.884;8.696;2023-12-20T09:12:53;99107.78;;;6.09;100.00
22743;BME280;11538;48.884;8.696;2023-12-20T09:15:25;99095.16;;;6.14;100.00
22743;BME280;11538;48.884;8.696;2023-12-20T09:17:53;99091.16;;;6.22;100.00
22743;BME280;11538;48.884;8.696;2023-12-20T09:20:20;99097.63;;;6.26;100.00
22743;BME280;11538;48.884;8.696;2023-12-20T09:22:47;99104.16;;;6.41;100.00
22743;BME280;11538;48.884;8.696;2023-12-20T09:25:14;99098.78;;;6.46;100.00
22743;BME280;11538;48.884;8.696;2023-12-20T09:27:42;99102.28;;;6.41;100.00
22743;BME280;11538;48.884;8.696;2023-12-20T09:30:10;99114.63;;;6.27;100.00
22743;BME280;11538;48.884;8.696;2023-12-20T09:32:37;99111.38;;;6.25;100.00
22743;BME280;11538;48.884;8.696;2023-12-20T09:35:04;99112.16;;;6.20;100.00
22743;BME280;11538;48.884;8.696;2023-12-20T09:37:33;99111.59;;;6.18;100.00
22743;BME280;11538;48.884;8.696;2023-12-20T09:40:00;99112.97;;;6.21;100.00
22743;BME280;11538;48.884;8.696;2023-12-20T09:42:59;99125.59;;;6.15;100.00
22743;BME280;11538;48.884;8.696;2023-12-20T09:45:31;99116.72;;;6.14;100.00
22743;BME280;11538;48.884;8.696;2023-12-20T09:47:58;99127.22;;;6.16;100.00
22743;BME280;11538;48.884;8.696;2023-12-20T09:50:26;99126.94;;;6.12;100.00
22743;BME280;11538;48.884;8.696;2023-12-20T09:52:54;99130.44;;;6.13;100.00
22743;BME280;11538;48.884;8.696;2023-12-20T09:55:27;99126.38;;;6.10;100.00
22743;BME280;11538;48.884;8.696;2023-12-20T09:57:57;99119.91;;;6.06;100.00
22743;BME280;11538;48.884;8.696;2023-12-20T10:00:24;99120.44;;;6.03;100.00
22743;BME280;11538;48.884;8.696;2023-12-20T10:02:59;99123.94;;;6.09;100.00
22743;BME280;11538;48.884;8.696;2023-12-20T10:05:33;99115.34;;;6.12;100.00
22743;BME280;11538;48.884;8.696;2023-12-20T10:08:01;99120.47;;;6.13;100.00
22743;BME280;11538;48.884;8.696;2023-12-20T10:10:30;99114.28;;;6.18;100.00
22743;BME280;11538;48.884;8.696;2023-12-20T10:13:12;99115.66;;;6.16;100.00
22743;BME280;11538;48.884;8.696;2023-12-20T10:15:40;99110.50;;;6.14;100.00
22743;BME280;11538;48.884;8.696;2023-12-20T10:18:08;99104.38;;;6.24;100.00
22743;BME280;11538;48.884;8.696;2023-12-20T10:20:36;99109.75;;;6.24;100.00
22743;BME280;11538;48.884;8.696;2023-12-20T10:23:03;99099.50;;;6.21;100.00
22743;BME280;11538;48.884;8.696;2023-12-20T10:25:30;99107.34;;;6.33;100.00
22743;BME280;11538;48.884;8.696;2023-12-20T10:30:40;99107.69;;;6.52;100.00
22743;BME280;11538;48.884;8.696;2023-12-20T10:33:08;99103.91;;;6.48;100.00
22743;BME280;11538;48.884;8.696;2023-12-20T10:35:38;99097.16;;;6.45;100.00
22743;BME280;11538;48.884;8.696;2023-12-20T10:38:11;99093.09;;;6.37;100.00
22743;BME280;11538;48.884;8.696;2023-12-20T10:40:39;99092.00;;;6.33;100.00
22743;BME280;11538;48.884;8.696;2023-12-20T10:43:09;99103.03;;;6.32;100.00
22743;BME280;11538;48.884;8.696;2023-12-20T10:45:37;99090.66;;;6.36;100.00
22743;BME280;11538;48.884;8.696;2023-12-20T10:48:05;99093.09;;;6.37;100.00
22743;BME280;11538;48.884;8.696;2023-12-20T10:50:32;99092.81;;;6.34;100.00
22743;BME280;11538;48.884;8.696;2023-12-20T10:53:03;99099.81;;;6.40;100.00
22743;BME280;11538;48.884;8.696;2023-12-20T10:55:30;99095.50;;;6.34;100.00
22743;BME280;11538;48.884;8.696;2023-12-20T10:58:07;99092.00;;;6.33;100.00
22743;BME280;11538;48.884;8.696;2023-12-20T11:00:40;99088.78;;;6.31;100.00
22743;BME280;11538;48.884;8.696;2023-12-20T11:03:11;99083.91;;;6.28;100.00
22743;BME280;11538;48.884;8.696;2023-12-20T11:06:05;99084.44;;;6.25;100.00
22743;BME280;11538;48.884;8.696;2023-12-20T11:08:50;99071.22;;;6.23;100.00
22743;BME280;11538;48.884;8.696;2023-12-20T11:12:06;99081.47;;;6.26;100.00
22743;BME280;11538;48.884;8.696;2023-12-20T11:14:45;99074.75;;;6.29;100.00
22743;BME280;11538;48.884;8.696;2023-12-20T11:17:14;99080.41;;;6.33;100.00
22743;BME280;11538;48.884;8.696;2023-12-20T11:22:25;99046.69;;;6.20;100.00
22743;BME280;11538;48.884;8.696;2023-12-20T11:24:53;99052.09;;;6.20;100.00
22743;BME280;11538;48.884;8.696;2023-12-20T11:27:20;99046.44;;;6.21;100.00
22743;BME280;11538;48.884;8.696;2023-12-20T11:29:56;99041.34;;;6.30;100.00
22743;BME280;11538;48.884;8.696;2023-12-20T11:34:57;99049.47;;;6.40;100.00
22743;BME280;11538;48.884;8.696;2023-12-20T11:37:30;99055.13;;;6.49;100.00
22743;BME280;11538;48.884;8.696;2023-12-20T11:42:38;99047.34;;;6.58;100.00
22743;BME280;11538;48.884;8.696;2023-12-20T11:45:09;99053.56;;;6.64;100.00
22743;BME280;11538;48.884;8.696;2023-12-20T11:47:36;99043.34;;;6.71;100.00
22743;BME280;11538;48.884;8.696;2023-12-20T11:50:04;99038.50;;;6.83;100.00
22743;BME280;11538;48.884;8.696;2023-12-20T11:52:31;99035.25;;;6.97;100.00
22743;BME280;11538;48.884;8.696;2023-12-20T11:54:58;99026.09;;;7.08;100.00
22743;BME280;11538;48.884;8.696;2023-12-20T11:57:25;99026.63;;;7.10;100.00
22743;BME280;11538;48.884;8.696;2023-12-20T11:59:54;99021.22;;;7.21;100.00
22743;BME280;11538;48.884;8.696;2023-12-20T12:02:21;99020.13;;;7.22;100.00
22743;BME280;11538;48.884;8.696;2023-12-20T12:04:49;99022.84;;;7.22;100.00
22743;BME280;11538;48.884;8.696;2023-12-20T12:07:17;99029.31;;;7.31;100.00
22743;BME280;11538;48.884;8.696;2023-12-20T12:09:46;99005.00;;;7.31;100.00
22743;BME280;11538;48.884;8.696;2023-12-20T12:12:13;99015.28;;;7.29;100.00
22743;BME280;11538;48.884;8.696;2023-12-20T12:14:41;99024.72;;;7.31;100.00
22743;BME280;11538;48.884;8.696;2023-12-20T12:17:12;99027.41;;;7.26;100.00
22743;BME280;11538;48.884;8.696;2023-12-20T12:19:41;99018.78;;;7.24;100.00
22743;BME280;11538;48.884;8.696;2023-12-20T12:22:10;99012.31;;;7.20;100.00
22743;BME280;11538;48.884;8.696;2023-12-20T12:24:46;99022.03;;;7.16;100.00
22743;BME280;11538;48.884;8.696;2023-12-20T12:27:13;99013.38;;;7.14;100.00
22743;BME280;11538;48.884;8.696;2023-12-20T12:29:40;99007.44;;;7.17;100.00
22743;BME280;11538;48.884;8.696;2023-12-20T12:32:09;99000.19;;;7.12;100.00
22743;BME280;11538;48.884;8.696;2023-12-20T12:34:36;98989.13;;;7.09;100.00
22743;BME280;11538;48.884;8.696;2023-12-20T12:37:04;98996.66;;;7.17;100.00
22743;BME280;11538;48.884;8.696;2023-12-20T12:39:31;98992.88;;;7.13;100.00
22743;BME280;11538;48.884;8.696;2023-12-20T12:41:59;99000.72;;;7.20;100.00
22743;BME280;11538;48.884;8.696;2023-12-20T12:44:25;98995.56;;;7.23;100.00
22743;BME280;11538;48.884;8.696;2023-12-20T12:46:53;98997.75;;;7.16;100.00
22743;BME280;11538;48.884;8.696;2023-12-20T12:49:20;98995.59;;;7.08;100.00
22743;BME280;11538;48.884;8.696;2023-12-20T12:51:48;99003.44;;;7.04;100.00
22743;BME280;11538;48.884;8.696;2023-12-20T12:54:15;98996.41;;;7.03;100.00
22743;BME280;11538;48.884;8.696;2023-12-20T12:56:44;98997.50;;;7.02;100.00
22743;BME280;11538;48.884;8.696;2023-12-20T12:59:11;99002.06;;;7.07;100.00
22743;BME280;11538;48.884;8.696;2023-12-20T13:01:38;98996.66;;;7.17;100.00
22743;BME280;11538;48.884;8.696;2023-12-20T13:04:06;98995.56;;;7.18;100.00
22743;BME280;11538;48.884;8.696;2023-12-20T13:06:38;99000.97;;;7.18;100.00
22743;BME280;11538;48.884;8.696;2023-12-20T13:09:05;99002.88;;;7.17;100.00
22743;BME280;11538;48.884;8.696;2023-12-20T13:11:33;99009.34;;;7.11;100.00
22743;BME280;11538;48.884;8.696;2023-12-20T13:14:01;98994.25;;;7.00;100.00
22743;BME280;11538;48.884;8.696;2023-12-20T13:16:30;99007.75;;;7.00;100.00
22743;BME280;11538;48.884;8.696;2023-12-20T13:18:57;99006.13;;;6.88;100.00